createdAt,value
2018-08-10T00:02:08.162Z,23.00
2018-08-10T00:04:35.505Z,23.00
2018-08-10T00:07:02.918Z,23.00
2018-08-10T00:09:30.390Z,23.00
2018-08-10T00:11:57.796Z,23.00
2018-08-10T00:14:25.222Z,22.70
2018-08-10T00:16:52.630Z,22.70
2018-08-10T00:19:20.006Z,22.60
2018-08-10T00:21:47.353Z,22.60
2018-08-10T00:24:14.764Z,22.60
2018-08-10T00:26:42.214Z,22.50
2018-08-10T00:29:09.598Z,22.60
2018-08-10T00:31:37.178Z,22.60
2018-08-10T00:34:04.735Z,22.60
2018-08-10T00:36:32.114Z,22.60
2018-08-10T00:38:59.556Z,22.50
2018-08-10T00:41:27.069Z,22.60
2018-08-10T00:43:54.470Z,22.60
2018-08-10T00:46:21.876Z,22.70
2018-08-10T00:48:49.325Z,22.70
2018-08-10T00:51:16.868Z,22.70
2018-08-10T00:53:44.255Z,22.70
2018-08-10T00:56:11.620Z,22.70
2018-08-10T00:58:38.999Z,22.50
2018-08-10T01:01:06.488Z,22.60
2018-08-10T01:03:33.890Z,22.60
2018-08-10T01:06:01.327Z,22.50
2018-08-10T01:08:28.761Z,22.50
2018-08-10T01:10:56.167Z,22.50
2018-08-10T01:13:23.813Z,22.50
2018-08-10T01:15:51.166Z,22.40
2018-08-10T01:18:18.585Z,22.50
2018-08-10T01:20:46.100Z,22.50
2018-08-10T01:23:13.569Z,22.30
2018-08-10T01:25:41.005Z,22.30
2018-08-10T01:28:08.406Z,22.20
2018-08-10T01:30:35.801Z,22.20
2018-08-10T01:33:03.741Z,22.10
2018-08-10T01:35:31.493Z,22.00
2018-08-10T01:38:00.086Z,22.10
2018-08-10T01:40:27.469Z,22.10
2018-08-10T01:42:54.968Z,22.10
2018-08-10T01:45:22.451Z,22.10
2018-08-10T01:47:49.911Z,22.10
2018-08-10T01:50:17.397Z,22.20
2018-08-10T01:52:44.759Z,22.30
2018-08-10T01:55:12.523Z,22.20
2018-08-10T01:57:40.261Z,22.30
2018-08-10T02:00:08.477Z,22.20
2018-08-10T02:02:36.254Z,22.20
2018-08-10T02:05:04.147Z,22.30
2018-08-10T02:07:35.621Z,22.30
2018-08-10T02:10:05.485Z,22.20
2018-08-10T02:12:32.989Z,22.20
2018-08-10T02:15:00.408Z,22.20
2018-08-10T02:17:27.822Z,22.10
2018-08-10T02:19:55.192Z,22.20
2018-08-10T02:22:22.566Z,22.20
2018-08-10T02:24:50.075Z,22.20
2018-08-10T02:27:17.421Z,22.20
2018-08-10T02:29:44.875Z,22.20
2018-08-10T02:32:12.253Z,22.10
2018-08-10T02:34:39.734Z,22.10
2018-08-10T02:37:07.074Z,22.10
2018-08-10T02:39:34.491Z,22.10
2018-08-10T02:42:01.953Z,22.10
2018-08-10T02:44:29.452Z,22.20
2018-08-10T02:46:56.818Z,22.20
2018-08-10T02:49:24.150Z,22.10
2018-08-10T02:51:51.525Z,21.90
2018-08-10T02:54:19.034Z,21.90
2018-08-10T02:56:46.566Z,21.80
2018-08-10T02:59:13.927Z,21.80
2018-08-10T03:01:41.401Z,21.70
2018-08-10T03:04:09.182Z,21.70
2018-08-10T03:06:36.685Z,21.70
2018-08-10T03:09:06.366Z,21.70
2018-08-10T03:11:33.782Z,21.70
2018-08-10T03:14:01.185Z,21.60
2018-08-10T03:16:28.560Z,21.60
2018-08-10T03:18:56.002Z,21.60
2018-08-10T03:21:23.443Z,21.60
2018-08-10T03:23:50.878Z,21.60
2018-08-10T03:26:18.338Z,21.50
2018-08-10T03:28:45.757Z,21.40
2018-08-10T03:31:13.134Z,21.50
2018-08-10T03:33:40.491Z,21.50
2018-08-10T03:36:07.827Z,21.40
2018-08-10T03:38:35.223Z,21.50
2018-08-10T03:41:02.641Z,21.50
2018-08-10T03:43:30.221Z,21.50
2018-08-10T03:45:57.634Z,21.50
2018-08-10T03:48:25.032Z,21.50
2018-08-10T03:50:52.411Z,21.50
2018-08-10T03:53:19.865Z,21.40
2018-08-10T03:55:47.282Z,21.30
2018-08-10T03:58:14.637Z,21.20
2018-08-10T04:00:42.004Z,21.20
2018-08-10T04:03:09.473Z,21.10
2018-08-10T04:05:36.838Z,21.10
2018-08-10T04:08:04.444Z,21.00
2018-08-10T04:10:31.927Z,21.00
2018-08-10T04:12:59.370Z,21.00
2018-08-10T04:15:26.884Z,20.80
2018-08-10T04:17:54.410Z,20.90
2018-08-10T04:20:21.818Z,20.80
2018-08-10T04:22:49.206Z,20.60
2018-08-10T04:25:16.636Z,20.60
2018-08-10T04:27:44.059Z,20.40
2018-08-10T04:30:11.579Z,20.30
2018-08-10T04:32:39.220Z,20.40
2018-08-10T04:35:07.271Z,20.30
2018-08-10T04:37:36.216Z,20.20
2018-08-10T04:40:05.141Z,20.00
2018-08-10T04:42:32.483Z,19.70
2018-08-10T04:44:59.810Z,19.70
2018-08-10T04:47:30.070Z,19.60
2018-08-10T04:49:57.368Z,19.70
2018-08-10T04:52:28.068Z,19.60
2018-08-10T04:54:55.476Z,19.70
2018-08-10T04:57:22.918Z,19.50
2018-08-10T04:59:50.375Z,19.40
2018-08-10T05:02:17.857Z,19.20
2018-08-10T05:04:45.258Z,19.20
2018-08-10T05:07:12.602Z,19.10
2018-08-10T05:09:39.982Z,19.20
2018-08-10T05:12:07.388Z,19.30
2018-08-10T05:14:35.470Z,19.40
2018-08-10T05:17:02.878Z,19.50
2018-08-10T05:19:30.322Z,19.50
2018-08-10T05:21:57.661Z,19.60
2018-08-10T05:24:25.143Z,19.70
2018-08-10T05:26:52.577Z,19.70
2018-08-10T05:29:19.982Z,19.80
2018-08-10T05:31:47.370Z,19.80
2018-08-10T05:34:14.767Z,19.90
2018-08-10T05:36:42.195Z,19.80
2018-08-10T05:39:10.814Z,19.90
2018-08-10T05:41:38.268Z,20.00
2018-08-10T05:44:05.744Z,20.00
2018-08-10T05:46:33.269Z,19.40
2018-08-10T05:49:00.734Z,19.20
2018-08-10T05:51:28.230Z,19.00
2018-08-10T05:53:55.687Z,19.20
2018-08-10T05:56:23.161Z,19.50
2018-08-10T05:58:50.694Z,19.40
2018-08-10T06:01:18.052Z,19.50
2018-08-10T06:03:45.569Z,19.50
2018-08-10T06:06:12.864Z,19.20
2018-08-10T06:08:40.331Z,19.30
2018-08-10T06:11:07.782Z,19.60
2018-08-10T06:13:35.189Z,19.90
2018-08-10T06:16:02.646Z,20.50
2018-08-10T06:18:30.189Z,20.60
2018-08-10T06:20:57.630Z,20.60
2018-08-10T06:23:25.008Z,20.40
2018-08-10T06:25:52.538Z,20.50
2018-08-10T06:28:20.397Z,20.30
2018-08-10T06:30:47.717Z,20.30
2018-08-10T06:33:14.993Z,20.30
2018-08-10T06:35:42.735Z,20.30
2018-08-10T06:38:10.073Z,20.10
2018-08-10T06:40:37.459Z,19.90
2018-08-10T06:43:05.003Z,19.70
2018-08-10T06:45:32.403Z,19.80
2018-08-10T06:47:59.788Z,19.80
2018-08-10T06:50:27.106Z,19.90
2018-08-10T06:52:54.479Z,19.90
2018-08-10T06:55:21.869Z,20.00
2018-08-10T06:57:49.347Z,20.00
2018-08-10T07:00:16.765Z,20.20
2018-08-10T07:02:44.151Z,19.90
2018-08-10T07:05:11.569Z,19.60
2018-08-10T07:07:39.146Z,19.60
2018-08-10T07:10:07.189Z,19.70
2018-08-10T07:12:34.582Z,19.70
2018-08-10T07:15:02.149Z,19.50
2018-08-10T07:17:29.686Z,19.50
2018-08-10T07:19:57.189Z,19.60
2018-08-10T07:22:24.585Z,19.80
2018-08-10T07:24:51.980Z,19.70
2018-08-10T07:27:19.555Z,19.60
2018-08-10T07:29:46.914Z,19.50
2018-08-10T07:32:14.362Z,19.40
2018-08-10T07:34:41.698Z,19.40
2018-08-10T07:37:09.085Z,19.50
2018-08-10T07:39:37.276Z,19.60
2018-08-10T07:42:04.682Z,19.70
2018-08-10T07:44:32.091Z,19.70
2018-08-10T07:46:59.458Z,19.50
2018-08-10T07:49:26.906Z,19.40
2018-08-10T07:51:54.244Z,19.40
2018-08-10T07:54:21.712Z,19.60
2018-08-10T07:56:49.796Z,19.60
2018-08-10T07:59:19.261Z,19.60
2018-08-10T08:01:46.694Z,19.80
2018-08-10T08:04:14.257Z,20.00
2018-08-10T08:06:41.754Z,19.90
2018-08-10T08:09:11.061Z,19.90
2018-08-10T08:11:38.568Z,20.00
2018-08-10T08:14:06.116Z,20.00
2018-08-10T08:16:33.602Z,20.20
2018-08-10T08:19:01.075Z,19.90
2018-08-10T08:21:28.382Z,19.80
2018-08-10T08:23:55.730Z,19.60
2018-08-10T08:26:23.142Z,20.10
2018-08-10T08:28:50.580Z,20.60
2018-08-10T08:31:18.017Z,21.10
2018-08-10T08:33:56.803Z,21.40
2018-08-10T08:36:24.119Z,21.80
2018-08-10T08:41:06.350Z,21.60
2018-08-10T08:46:06.730Z,21.70
2018-08-10T08:48:36.314Z,22.10
2018-08-10T08:51:06.644Z,21.80
2018-08-10T08:53:34.139Z,21.40
2018-08-10T08:56:03.169Z,21.10
2018-08-10T08:58:30.982Z,20.90
2018-08-10T09:00:58.431Z,21.10
2018-08-10T09:03:37.970Z,20.80
2018-08-10T09:06:06.311Z,21.00
2018-08-10T09:08:33.794Z,21.20
2018-08-10T09:11:02.500Z,21.50
2018-08-10T09:14:43.606Z,21.60
2018-08-10T09:17:11.177Z,20.80
2018-08-10T09:19:39.598Z,21.30
2018-08-10T09:22:07.176Z,21.50
2018-08-10T09:24:34.727Z,21.80
2018-08-10T09:27:02.764Z,21.90
2018-08-10T09:29:30.882Z,21.40
2018-08-10T09:31:58.496Z,21.30
2018-08-10T09:34:26.794Z,21.10
2018-08-10T09:36:54.185Z,20.90
2018-08-10T09:39:21.747Z,21.20
2018-08-10T09:41:49.217Z,21.50
2018-08-10T09:44:16.755Z,21.50
2018-08-10T09:46:44.298Z,21.70
2018-08-10T09:49:11.709Z,22.00
2018-08-10T09:51:39.259Z,21.50
2018-08-10T09:54:06.722Z,21.40
2018-08-10T09:56:34.147Z,21.90
2018-08-10T09:59:01.518Z,22.00
2018-08-10T10:01:33.548Z,22.10
2018-08-10T10:04:00.969Z,22.70
2018-08-10T10:06:28.425Z,22.60
2018-08-10T10:08:56.177Z,22.80
2018-08-10T10:11:23.770Z,22.70
2018-08-10T10:13:51.182Z,22.40
2018-08-10T10:16:18.583Z,21.70
2018-08-10T10:18:45.915Z,21.80
2018-08-10T10:21:13.409Z,22.40
2018-08-10T10:23:40.754Z,22.60
2018-08-10T10:26:08.207Z,22.40
2018-08-10T10:28:35.635Z,22.70
2018-08-10T10:31:03.081Z,22.60
2018-08-10T10:33:30.438Z,22.70
2018-08-10T10:35:57.749Z,22.60
2018-08-10T10:38:25.130Z,22.80
2018-08-10T10:40:52.507Z,22.70
2018-08-10T10:43:19.869Z,22.50
2018-08-10T10:45:47.352Z,22.90
2018-08-10T10:48:14.848Z,23.10
2018-08-10T10:50:42.130Z,23.50
2018-08-10T10:53:09.594Z,23.40
2018-08-10T10:55:37.084Z,23.80
2018-08-10T10:58:04.525Z,24.10
2018-08-10T11:00:31.973Z,23.90
2018-08-10T11:02:59.322Z,23.60
2018-08-10T11:05:26.729Z,23.50
2018-08-10T11:07:54.166Z,23.50
2018-08-10T11:10:21.597Z,23.50
2018-08-10T11:12:48.973Z,23.70
2018-08-10T11:15:16.301Z,23.00
2018-08-10T11:17:43.778Z,23.00
2018-08-10T11:20:11.989Z,22.70
2018-08-10T11:22:40.220Z,23.30
2018-08-10T11:25:08.784Z,24.00
2018-08-10T11:27:36.270Z,24.30
2018-08-10T11:30:04.934Z,24.50
2018-08-10T11:32:32.399Z,23.90
2018-08-10T11:34:59.891Z,24.10
2018-08-10T11:37:27.377Z,24.50
2018-08-10T11:39:54.901Z,25.10
2018-08-10T11:42:22.227Z,25.40
2018-08-10T11:44:49.660Z,25.30
2018-08-10T11:47:17.145Z,25.30
2018-08-10T11:49:44.611Z,24.80
2018-08-10T11:52:12.145Z,24.60
2018-08-10T11:54:39.594Z,25.10
2018-08-10T11:57:07.005Z,24.80
2018-08-10T11:59:34.307Z,24.80
2018-08-10T12:02:01.843Z,25.10
2018-08-10T12:04:29.230Z,25.10
2018-08-10T12:06:56.639Z,25.10
2018-08-10T12:09:24.112Z,25.40
2018-08-10T12:11:51.521Z,25.80
2018-08-10T12:14:18.960Z,25.80
2018-08-10T12:16:46.345Z,26.30
2018-08-10T12:19:13.820Z,26.10
2018-08-10T12:21:41.311Z,26.00
2018-08-10T12:24:08.690Z,25.50
2018-08-10T12:26:36.023Z,25.90
2018-08-10T12:29:03.422Z,26.30
2018-08-10T12:31:30.860Z,26.60
2018-08-10T12:33:58.330Z,26.10
2018-08-10T12:36:25.890Z,25.70
2018-08-10T12:38:53.599Z,25.40
2018-08-10T12:41:21.134Z,25.70
2018-08-10T12:43:48.515Z,25.90
2018-08-10T12:46:15.919Z,25.80
2018-08-10T12:48:43.391Z,25.60
2018-08-10T12:51:10.763Z,25.30
2018-08-10T12:53:38.213Z,25.00
2018-08-10T12:56:06.006Z,25.30
2018-08-10T12:58:33.496Z,25.90
2018-08-10T13:01:00.933Z,26.40
2018-08-10T13:03:28.908Z,26.70
2018-08-10T13:05:56.334Z,26.80
2018-08-10T13:08:23.778Z,26.70
2018-08-10T13:10:51.168Z,26.30
2018-08-10T13:13:18.534Z,26.10
2018-08-10T13:15:45.970Z,26.50
2018-08-10T13:18:13.517Z,26.60
2018-08-10T13:20:40.873Z,26.30
2018-08-10T13:23:08.200Z,26.30
2018-08-10T13:25:35.684Z,26.10
2018-08-10T13:28:03.194Z,26.10
2018-08-10T13:30:30.610Z,26.20
2018-08-10T13:32:58.114Z,26.20
2018-08-10T13:35:25.566Z,26.10
2018-08-10T13:37:52.961Z,26.40
2018-08-10T13:40:20.441Z,26.30
2018-08-10T13:42:47.878Z,26.60
2018-08-10T13:45:15.231Z,26.70
2018-08-10T13:47:42.806Z,27.00
2018-08-10T13:50:13.258Z,27.40
2018-08-10T13:52:40.686Z,27.40
2018-08-10T13:55:10.259Z,27.80
2018-08-10T13:57:37.734Z,27.70
2018-08-10T14:00:05.387Z,27.00
2018-08-10T14:02:32.820Z,27.40
2018-08-10T14:05:00.289Z,26.60
2018-08-10T14:07:27.670Z,26.30
2018-08-10T14:09:55.028Z,26.30
2018-08-10T14:12:22.442Z,25.90
2018-08-10T14:14:49.922Z,25.70
2018-08-10T14:17:17.369Z,25.60
2018-08-10T14:19:44.828Z,26.20
2018-08-10T14:22:12.321Z,26.40
2018-08-10T14:24:39.811Z,26.60
2018-08-10T14:27:07.247Z,26.70
2018-08-10T14:29:34.807Z,27.00
2018-08-10T14:32:02.172Z,27.20
2018-08-10T14:34:29.560Z,27.90
2018-08-10T14:36:57.000Z,27.60
2018-08-10T14:39:24.479Z,27.10
2018-08-10T14:41:52.025Z,26.60
2018-08-10T14:44:19.492Z,27.10
2018-08-10T14:46:46.939Z,27.20
2018-08-10T14:49:14.458Z,27.30
2018-08-10T14:51:41.905Z,26.80
2018-08-10T14:54:09.295Z,26.80
2018-08-10T14:56:36.768Z,27.10
2018-08-10T14:59:04.370Z,27.00
2018-08-10T15:01:31.790Z,26.90
2018-08-10T15:03:59.247Z,27.20
2018-08-10T15:06:26.642Z,26.80
2018-08-10T15:08:54.171Z,26.50
2018-08-10T15:11:21.657Z,26.00
2018-08-10T15:13:49.100Z,25.70
2018-08-10T15:16:16.665Z,26.00
2018-08-10T15:18:44.139Z,25.70
2018-08-10T15:21:11.519Z,26.00
2018-08-10T15:23:38.991Z,25.90
2018-08-10T15:26:06.588Z,26.20
2018-08-10T15:28:34.133Z,25.80
2018-08-10T15:31:01.665Z,25.40
2018-08-10T15:33:29.279Z,25.60
2018-08-10T15:35:56.752Z,26.00
2018-08-10T15:38:24.229Z,26.20
2018-08-10T15:40:51.625Z,26.20
2018-08-10T15:43:19.066Z,26.20
2018-08-10T15:45:46.510Z,25.90
2018-08-10T15:48:13.933Z,25.50
2018-08-10T15:50:41.383Z,25.40
2018-08-10T15:53:08.930Z,25.30
2018-08-10T15:55:36.332Z,25.30
2018-08-10T15:58:03.818Z,25.30
2018-08-10T16:00:31.280Z,25.50
2018-08-10T16:02:58.732Z,25.50
2018-08-10T16:05:54.675Z,25.50
2018-08-10T16:08:22.151Z,25.30
2018-08-10T16:10:49.588Z,25.30
2018-08-10T16:13:17.071Z,25.40
2018-08-10T16:15:44.495Z,25.40
2018-08-10T16:18:11.928Z,25.30
2018-08-10T16:20:39.316Z,25.20
2018-08-10T16:23:06.786Z,25.10
2018-08-10T16:25:34.217Z,25.00
2018-08-10T16:28:01.596Z,25.00
2018-08-10T16:30:29.160Z,25.00
2018-08-10T16:32:56.630Z,25.10
2018-08-10T16:35:24.069Z,25.00
2018-08-10T16:37:51.572Z,25.00
2018-08-10T16:40:19.518Z,25.00
2018-08-10T16:42:46.988Z,24.90
2018-08-10T16:45:14.597Z,24.80
2018-08-10T16:47:42.168Z,24.60
2018-08-10T16:50:11.152Z,24.50
2018-08-10T16:52:39.482Z,24.30
2018-08-10T16:55:09.090Z,24.10
2018-08-10T16:57:36.502Z,24.20
2018-08-10T17:00:05.656Z,24.30
2018-08-10T17:02:33.109Z,24.40
2018-08-10T17:05:00.484Z,24.50
2018-08-10T17:07:27.935Z,24.50
2018-08-10T17:09:55.305Z,24.60
2018-08-10T17:12:22.741Z,24.60
2018-08-10T17:14:50.246Z,24.60
2018-08-10T17:17:17.735Z,24.50
2018-08-10T17:19:45.194Z,24.50
2018-08-10T17:22:12.590Z,24.40
2018-08-10T17:24:40.020Z,24.50
2018-08-10T17:27:07.535Z,24.50
2018-08-10T17:29:35.088Z,24.40
2018-08-10T17:32:02.554Z,24.40
2018-08-10T17:34:29.871Z,24.30
2018-08-10T17:36:57.348Z,24.30
2018-08-10T17:39:24.652Z,24.40
2018-08-10T17:41:52.094Z,24.30
2018-08-10T17:44:19.571Z,24.10
2018-08-10T17:46:47.015Z,24.10
2018-08-10T17:49:14.419Z,24.10
2018-08-10T17:51:41.918Z,24.00
2018-08-10T17:54:09.369Z,24.10
2018-08-10T17:56:36.690Z,24.00
2018-08-10T17:59:04.571Z,24.00
2018-08-10T18:01:31.974Z,23.80
2018-08-10T18:03:59.458Z,23.80
2018-08-10T18:06:26.798Z,23.80
2018-08-10T18:08:54.285Z,23.80
2018-08-10T18:11:21.704Z,23.80
2018-08-10T18:13:49.357Z,23.70
2018-08-10T18:16:16.822Z,23.70
2018-08-10T18:18:44.226Z,23.60
2018-08-10T18:21:11.594Z,23.50
2018-08-10T18:23:39.202Z,23.50
2018-08-10T18:26:06.778Z,23.50
2018-08-10T18:28:34.220Z,23.40
2018-08-10T18:31:01.749Z,23.30
2018-08-10T18:33:29.206Z,23.20
2018-08-10T18:35:57.272Z,23.20
2018-08-10T18:38:24.746Z,23.10
2018-08-10T18:40:52.328Z,23.00
2018-08-10T18:43:19.902Z,22.90
2018-08-10T18:45:47.289Z,22.90
2018-08-10T18:48:14.743Z,22.80
2018-08-10T18:50:42.324Z,22.70
2018-08-10T18:53:09.650Z,22.60
2018-08-10T18:55:37.115Z,22.60
2018-08-10T18:58:04.640Z,22.60
2018-08-10T19:00:32.048Z,22.60
2018-08-10T19:02:59.529Z,22.50
2018-08-10T19:05:27.020Z,22.40
2018-08-10T19:07:54.521Z,22.40
2018-08-10T19:10:23.489Z,22.30
2018-08-10T19:12:50.898Z,22.20
2018-08-10T19:15:18.354Z,22.20
2018-08-10T19:17:46.092Z,22.20
2018-08-10T19:20:14.235Z,22.10
2018-08-10T19:22:41.745Z,22.00
2018-08-10T19:25:11.292Z,21.90
2018-08-10T19:27:38.891Z,21.90
2018-08-10T19:30:09.709Z,21.80
2018-08-10T19:32:37.386Z,21.80
2018-08-10T19:35:05.306Z,21.70
2018-08-10T19:37:32.892Z,21.50
2018-08-10T19:40:00.325Z,21.50
2018-08-10T19:42:27.875Z,21.40
2018-08-10T19:44:55.396Z,21.40
2018-08-10T19:47:22.749Z,21.40
2018-08-10T19:49:50.194Z,21.30
2018-08-10T19:52:17.630Z,21.30
2018-08-10T19:54:45.066Z,21.30
2018-08-10T19:57:12.481Z,21.20
2018-08-10T19:59:40.803Z,20.90
2018-08-10T20:02:08.418Z,20.80
2018-08-10T20:04:35.804Z,20.80
2018-08-10T20:07:03.328Z,20.90
2018-08-10T20:09:30.849Z,20.90
2018-08-10T20:11:58.309Z,20.90
2018-08-10T20:14:25.778Z,21.00
2018-08-10T20:16:53.162Z,21.10
2018-08-10T20:19:20.664Z,21.10
2018-08-10T20:21:48.140Z,21.00
2018-08-10T20:24:15.632Z,21.10
2018-08-10T20:26:43.146Z,21.10
2018-08-10T20:29:10.664Z,21.10
2018-08-10T20:31:38.195Z,21.00
2018-08-10T20:34:05.532Z,20.90
2018-08-10T20:36:32.966Z,20.90
2018-08-10T20:39:00.409Z,20.90
2018-08-10T20:41:27.946Z,20.80
2018-08-10T20:43:55.328Z,20.70
2018-08-10T20:46:22.786Z,20.70
2018-08-10T20:48:50.273Z,20.70
2018-08-10T20:51:17.638Z,20.60
2018-08-10T20:53:45.170Z,20.60
2018-08-10T20:56:12.575Z,20.60
2018-08-10T20:58:40.034Z,20.50
2018-08-10T21:01:07.472Z,20.40
2018-08-10T21:03:34.890Z,20.40
2018-08-10T21:06:02.372Z,20.10
2018-08-10T21:08:30.043Z,20.10
2018-08-10T21:10:57.302Z,20.00
2018-08-10T21:13:24.777Z,20.10
2018-08-10T21:15:52.247Z,20.10
2018-08-10T21:18:19.713Z,20.10
2018-08-10T21:20:47.247Z,20.10
2018-08-10T21:23:14.613Z,20.20
2018-08-10T21:25:42.132Z,20.20
2018-08-10T21:28:09.635Z,20.20
2018-08-10T21:30:37.159Z,20.10
2018-08-10T21:33:04.565Z,20.00
2018-08-10T21:35:32.069Z,20.00
2018-08-10T21:37:59.601Z,19.90
2018-08-10T21:40:27.052Z,19.90
2018-08-10T21:42:54.509Z,20.00
2018-08-10T21:45:21.942Z,20.00
2018-08-10T21:47:49.324Z,20.00
2018-08-10T21:50:16.700Z,20.00
2018-08-10T21:52:44.675Z,20.00
2018-08-10T21:55:13.103Z,19.80
2018-08-10T21:57:40.981Z,19.70
2018-08-10T22:00:49.924Z,19.80
2018-08-10T22:03:17.658Z,19.70
2018-08-10T22:05:45.069Z,19.70
2018-08-10T22:08:12.494Z,19.80
2018-08-10T22:10:40.574Z,19.80
2018-08-10T22:13:12.667Z,19.80
2018-08-10T22:15:46.165Z,19.70
2018-08-10T22:18:19.442Z,19.80
2018-08-10T22:20:46.862Z,19.70
2018-08-10T22:23:14.358Z,19.80
2018-08-10T22:25:41.712Z,19.60
2018-08-10T22:31:06.239Z,19.60
2018-08-10T22:33:41.803Z,19.60
2018-08-10T22:36:16.899Z,19.60
2018-08-10T22:38:44.317Z,19.50
2018-08-10T22:41:11.834Z,19.50
2018-08-10T22:43:39.212Z,19.40
2018-08-10T22:46:06.622Z,19.40
2018-08-10T22:48:40.575Z,19.40
2018-08-10T22:51:08.294Z,19.40
2018-08-10T22:53:35.799Z,19.40
2018-08-10T22:56:03.536Z,19.40
2018-08-10T22:58:33.540Z,19.40
2018-08-10T23:01:01.018Z,19.30
2018-08-10T23:03:28.418Z,19.30
2018-08-10T23:05:55.898Z,19.20
2018-08-10T23:08:23.445Z,19.30
2018-08-10T23:10:50.880Z,19.20
2018-08-10T23:13:18.329Z,19.10
2018-08-10T23:15:45.692Z,19.10
2018-08-10T23:18:13.156Z,19.00
2018-08-10T23:20:40.671Z,19.00
2018-08-10T23:23:08.106Z,19.00
2018-08-10T23:25:35.480Z,19.00
2018-08-10T23:28:02.858Z,19.00
2018-08-10T23:30:30.414Z,19.00
2018-08-10T23:32:57.823Z,19.00
2018-08-10T23:35:25.329Z,19.00
2018-08-10T23:37:52.821Z,19.00
2018-08-10T23:40:20.291Z,18.80
2018-08-10T23:42:47.613Z,18.80
2018-08-10T23:45:15.449Z,18.80
2018-08-10T23:47:43.706Z,18.80
2018-08-10T23:50:14.873Z,18.90
2018-08-10T23:52:42.681Z,18.90
2018-08-10T23:55:10.601Z,18.90
2018-08-10T23:57:39.029Z,18.90
